Terminal Aerodrome Forecast
Issued by NWS

Home | Current Version | Previous Version | Text Only | Print | Product List | Glossary On
Versions: 1 2 3 4 5 6 7 8 9 10 11 12 13 14 15 16
000
FTUS45 KBOU 050607 AAA
TAFAPA
TAF AMD
KAPA 050607Z 0506/0606 19009KT P6SM FEW220
     FM051400 VRB05KT P6SM SCT220
     FM052000 10008KT P6SM FEW110 SCT220
     FM060100 14012KT P6SM SCT080 BKN140
     FM060500 17016KT P6SM FEW080 BKN200=

USA.gov is the U.S. government's official web portal to all federal, state and local government web resources and services.